Time;durP1;ratioP1;P1;durP2;ratioP2;P2;SDS_P1;SDS_P2;PMS_P1;PMS_P2;Temp;Humidity;BMP_temperature;BMP_pressure;BME280_temperature;BME280_humidity;BME280_pressure;Samples;Min_cycle;Max_cycle;Signal;HPM_P1;HPM_P2
2022/03/19 00:00:17;;;;;;;9.53;3.97;;;3.10;97.30;;;;;;5035666;28;20211;-79
2022/03/19 00:02:43;;;;;;;13.50;4.83;;;3.00;97.30;;;;;;5015624;28;20437;-79
2022/03/19 00:05:09;;;;;;;10.40;4.93;;;2.90;97.30;;;;;;5015227;28;20416;-79
2022/03/19 00:07:41;;;;;;;13.63;4.73;;;2.90;97.30;;;;;;5017275;28;20409;-79
2022/03/19 00:10:08;;;;;;;9.40;4.50;;;2.90;97.30;;;;;;5015643;28;20486;-79
2022/03/19 00:12:35;;;;;;;10.03;4.63;;;2.80;97.30;;;;;;5015288;28;20825;-79
2022/03/19 00:15:01;;;;;;;10.77;4.83;;;2.80;97.30;;;;;;5015300;28;20424;-79
2022/03/19 00:17:27;;;;;;;8.80;4.10;;;2.80;97.30;;;;;;5014963;28;20428;-79
2022/03/19 00:19:53;;;;;;;12.53;5.97;;;2.70;97.30;;;;;;5014914;28;20513;-79
2022/03/19 00:22:18;;;;;;;10.87;4.10;;;2.70;97.30;;;;;;5016435;28;20546;-79
2022/03/19 00:24:44;;;;;;;14.50;4.83;;;2.70;97.30;;;;;;5015219;28;20169;-79
2022/03/19 00:27:09;;;;;;;12.23;4.57;;;2.70;97.30;;;;;;5014976;28;20634;-79
2022/03/19 00:29:35;;;;;;;17.50;4.80;;;2.60;97.30;;;;;;5014433;28;20229;-78
2022/03/19 00:32:00;;;;;;;11.57;5.03;;;2.60;97.30;;;;;;5014897;28;20261;-79
2022/03/19 00:34:26;;;;;;;9.47;4.40;;;2.50;97.30;;;;;;5014550;28;20200;-79
2022/03/19 00:36:53;;;;;;;9.63;4.60;;;2.50;97.30;;;;;;5014439;28;20192;-79
2022/03/19 00:39:18;;;;;;;15.03;4.90;;;2.50;97.30;;;;;;5013884;28;20293;-79
2022/03/19 00:41:44;;;;;;;8.67;4.57;;;2.40;97.30;;;;;;5014960;28;20796;-78
2022/03/19 00:44:09;;;;;;;8.10;4.03;;;2.40;97.30;;;;;;5014701;28;20201;-79
2022/03/19 00:46:35;;;;;;;10.60;4.87;;;2.40;97.30;;;;;;5015426;28;20231;-79
2022/03/19 00:49:00;;;;;;;11.53;4.40;;;2.40;97.30;;;;;;5014623;28;20188;-79
2022/03/19 00:51:26;;;;;;;11.43;4.43;;;2.30;97.30;;;;;;5013872;28;20185;-79
2022/03/19 00:53:51;;;;;;;11.90;4.60;;;2.30;97.30;;;;;;5014829;28;20208;-78
2022/03/19 00:56:17;;;;;;;7.83;4.33;;;2.30;97.30;;;;;;5013880;28;20181;-79
2022/03/19 00:58:43;;;;;;;9.03;4.03;;;2.30;97.30;;;;;;5014147;28;20197;-78
2022/03/19 01:01:08;;;;;;;18.23;4.30;;;2.20;97.30;;;;;;5013337;28;20177;-79
2022/03/19 01:03:34;;;;;;;7.43;4.17;;;2.20;97.30;;;;;;5013609;28;20205;-78
2022/03/19 01:05:59;;;;;;;9.73;4.10;;;2.20;97.30;;;;;;5014069;28;20643;-77
2022/03/19 01:08:25;;;;;;;15.23;3.63;;;2.20;97.30;;;;;;5013657;28;20543;-78
2022/03/19 01:10:51;;;;;;;10.27;4.67;;;2.20;97.30;;;;;;5014914;28;20252;-78
2022/03/19 01:13:17;;;;;;;8.53;3.67;;;2.20;97.30;;;;;;5013632;28;20189;-79
2022/03/19 01:15:43;;;;;;;15.50;3.90;;;2.10;97.30;;;;;;5013484;28;20413;-78
2022/03/19 01:18:08;;;;;;;23.53;5.13;;;2.20;97.30;;;;;;5013832;28;20180;-78
2022/03/19 01:20:34;;;;;;;6.43;3.23;;;2.10;97.30;;;;;;5013163;28;20201;-78
2022/03/19 01:23:00;;;;;;;6.70;4.13;;;2.10;97.30;;;;;;5015040;28;20196;-78
2022/03/19 01:25:26;;;;;;;8.30;3.80;;;2.10;97.30;;;;;;5014077;28;20173;-79
2022/03/19 01:27:51;;;;;;;11.10;4.60;;;2.10;97.30;;;;;;5013100;28;20451;-78
2022/03/19 01:30:19;;;;;;;18.00;6.13;;;2.20;97.30;;;;;;5012988;28;20228;-77
2022/03/19 01:32:46;;;;;;;7.17;4.53;;;2.20;97.30;;;;;;5012871;28;20208;-78
2022/03/19 01:35:13;;;;;;;11.63;5.10;;;2.30;97.30;;;;;;5012921;28;20450;-78
2022/03/19 01:37:40;;;;;;;13.40;5.17;;;2.40;97.30;;;;;;5012840;28;20999;-78
2022/03/19 01:40:07;;;;;;;16.70;4.90;;;2.40;97.30;;;;;;5012742;28;20468;-78
2022/03/19 01:42:36;;;;;;;10.00;4.33;;;2.50;97.30;;;;;;5013233;28;20404;-78
2022/03/19 01:45:05;;;;;;;10.20;4.57;;;2.60;97.30;;;;;;5013155;28;20503;-78
2022/03/19 01:47:31;;;;;;;14.03;4.10;;;2.60;97.30;;;;;;5013197;28;20499;-79
2022/03/19 01:49:57;;;;;;;16.77;4.10;;;2.70;97.30;;;;;;5013078;28;20417;-78
2022/03/19 01:52:23;;;;;;;14.43;4.33;;;2.80;97.30;;;;;;5012896;28;20416;-79
2022/03/19 01:54:50;;;;;;;10.93;4.60;;;2.90;97.30;;;;;;5012674;28;20426;-79
2022/03/19 01:57:22;;;;;;;13.07;4.30;;;3.00;97.30;;;;;;5014579;28;20779;-79
2022/03/19 01:59:48;;;;;;;8.80;4.90;;;3.20;97.30;;;;;;5013156;28;20448;-79
2022/03/19 02:02:14;;;;;;;11.87;4.27;;;3.30;97.30;;;;;;5012982;28;20989;-78
2022/03/19 02:04:41;;;;;;;15.10;5.07;;;3.40;97.30;;;;;;5012463;28;20463;-78
2022/03/19 02:07:08;;;;;;;19.80;6.63;;;3.60;97.30;;;;;;5012807;28;20465;-78
2022/03/19 02:09:34;;;;;;;11.93;4.20;;;3.70;97.30;;;;;;5012385;28;20444;-78
2022/03/19 02:12:00;;;;;;;14.90;3.80;;;3.80;97.30;;;;;;5014180;28;20418;-78
2022/03/19 02:14:26;;;;;;;11.27;3.90;;;3.90;97.30;;;;;;5013678;28;20201;-77
2022/03/19 02:16:52;;;;;;;14.27;5.00;;;4.00;97.30;;;;;;5012486;28;20503;-78
2022/03/19 02:19:18;;;;;;;6.73;3.80;;;4.10;97.30;;;;;;5012701;28;20456;-78
2022/03/19 02:21:48;;;;;;;6.77;3.90;;;4.10;97.30;;;;;;5013145;28;20524;-79
2022/03/19 02:27:07;;;;;;;13.33;3.60;;;4.30;97.30;;;;;;5005779;28;20475;-78
2022/03/19 02:29:33;;;;;;;8.13;3.43;;;4.40;97.30;;;;;;5013007;28;20525;-78
2022/03/19 02:32:03;;;;;;;11.57;4.10;;;4.50;97.30;;;;;;5014239;28;20185;-78
2022/03/19 02:34:29;;;;;;;10.83;3.40;;;4.50;97.30;;;;;;5012027;28;20571;-79
2022/03/19 02:36:55;;;;;;;7.53;4.73;;;4.50;97.30;;;;;;5012639;28;20426;-78
2022/03/19 02:39:25;;;;;;;16.87;3.60;;;4.50;97.30;;;;;;5013422;28;20520;-79
2022/03/19 02:41:52;;;;;;;11.33;4.03;;;4.50;97.30;;;;;;5013616;28;20408;-78
2022/03/19 02:44:19;;;;;;;11.93;4.00;;;4.50;97.30;;;;;;5012826;28;21143;-79
2022/03/19 02:46:53;;;;;;;14.93;4.90;;;4.40;97.30;;;;;;5013417;28;20409;-79
2022/03/19 02:49:19;;;;;;;12.63;4.87;;;4.40;97.30;;;;;;5013849;28;20423;-79
2022/03/19 02:51:48;;;;;;;11.33;4.67;;;4.40;97.30;;;;;;5017464;28;20451;-79
2022/03/19 02:54:19;;;;;;;18.17;6.23;;;4.30;97.30;;;;;;5015289;28;20439;-78
2022/03/19 02:56:46;;;;;;;16.07;4.83;;;4.30;97.30;;;;;;5016554;28;20439;-79
2022/03/19 02:59:14;;;;;;;17.77;6.33;;;4.20;97.30;;;;;;5016036;28;20463;-77
2022/03/19 03:01:40;;;;;;;15.27;6.50;;;4.20;97.30;;;;;;5015868;28;20412;-78
2022/03/19 03:04:06;;;;;;;16.20;6.30;;;4.10;97.30;;;;;;5016021;28;20434;-79
2022/03/19 03:06:41;;;;;;;16.93;6.53;;;4.10;97.30;;;;;;5015605;28;20495;-78
2022/03/19 03:09:08;;;;;;;25.17;5.57;;;4.10;97.30;;;;;;5024696;28;20183;-79
2022/03/19 03:11:36;;;;;;;10.60;3.50;;;4.10;97.30;;;;;;5035227;28;20453;-78
2022/03/19 03:14:03;;;;;;;12.73;4.40;;;4.00;97.30;;;;;;5035790;28;20522;-78
2022/03/19 03:16:32;;;;;;;10.33;4.40;;;4.00;97.30;;;;;;5037408;28;20419;-78
2022/03/19 03:19:01;;;;;;;9.93;3.53;;;4.00;97.30;;;;;;5035294;28;20451;-78
2022/03/19 03:21:27;;;;;;;16.03;4.33;;;4.00;97.30;;;;;;5035552;28;20415;-79
2022/03/19 03:23:54;;;;;;;12.80;4.20;;;3.90;97.30;;;;;;5035221;28;20439;-79
2022/03/19 03:26:19;;;;;;;10.90;3.80;;;3.90;97.30;;;;;;5035584;28;20411;-78
2022/03/19 03:28:45;;;;;;;16.13;3.83;;;3.90;97.30;;;;;;5035513;28;20431;-78
2022/03/19 03:31:11;;;;;;;10.90;3.47;;;3.90;97.30;;;;;;5035247;28;20238;-79
2022/03/19 03:33:36;;;;;;;8.33;3.90;;;3.80;97.30;;;;;;5035194;28;20673;-79
2022/03/19 03:36:02;;;;;;;12.40;3.60;;;3.80;97.30;;;;;;5035077;28;20176;-78
2022/03/19 03:38:28;;;;;;;14.17;4.40;;;3.70;97.30;;;;;;5034746;28;20291;-78
2022/03/19 03:40:53;;;;;;;10.77;3.20;;;3.70;97.30;;;;;;5035645;28;20172;-78
2022/03/19 03:43:19;;;;;;;11.70;3.30;;;3.70;97.30;;;;;;5034973;28;21059;-79
2022/03/19 03:45:45;;;;;;;11.63;4.20;;;3.60;97.30;;;;;;5036688;28;20200;-79
2022/03/19 03:48:10;;;;;;;12.70;3.73;;;3.60;97.30;;;;;;5035007;28;20199;-78
2022/03/19 03:50:37;;;;;;;19.50;4.83;;;3.50;97.30;;;;;;5034743;28;20180;-78
2022/03/19 03:53:06;;;;;;;11.83;3.20;;;3.50;97.30;;;;;;5034113;28;20197;-78
2022/03/19 03:55:34;;;;;;;13.83;3.40;;;3.50;97.30;;;;;;5036209;28;20740;-78
2022/03/19 03:58:00;;;;;;;12.37;4.77;;;3.50;97.30;;;;;;5035855;28;20907;-79
2022/03/19 04:00:27;;;;;;;12.23;3.13;;;3.40;97.30;;;;;;5033169;28;20988;-78
2022/03/19 04:02:52;;;;;;;12.83;3.13;;;3.40;97.30;;;;;;5034631;28;20432;-78
2022/03/19 04:05:18;;;;;;;8.90;2.63;;;3.30;97.30;;;;;;5035191;28;20406;-79
2022/03/19 04:07:44;;;;;;;9.00;3.80;;;3.30;97.30;;;;;;5034616;28;20169;-78
2022/03/19 04:10:10;;;;;;;13.13;3.40;;;3.20;97.30;;;;;;5033848;28;20917;-78
2022/03/19 04:12:36;;;;;;;10.00;2.83;;;3.20;97.30;;;;;;5033983;28;20690;-78
2022/03/19 04:15:02;;;;;;;24.77;3.47;;;3.10;97.30;;;;;;5033713;28;20164;-78
2022/03/19 04:17:27;;;;;;;12.33;3.13;;;3.10;97.30;;;;;;5034091;28;20534;-78
2022/03/19 04:19:53;;;;;;;15.13;3.97;;;3.10;97.30;;;;;;5034233;28;20553;-78
2022/03/19 04:22:18;;;;;;;10.50;3.13;;;3.00;97.30;;;;;;5033385;28;20180;-78
2022/03/19 04:24:44;;;;;;;11.60;3.93;;;3.00;97.30;;;;;;5033786;28;20265;-78
2022/03/19 04:27:10;;;;;;;12.40;3.40;;;2.90;97.30;;;;;;5034890;28;20259;-78
2022/03/19 04:29:36;;;;;;;6.80;3.27;;;2.90;97.30;;;;;;5034602;28;20224;-78
2022/03/19 04:32:02;;;;;;;9.87;3.40;;;2.90;97.30;;;;;;5033790;28;20248;-78
2022/03/19 04:34:27;;;;;;;11.77;3.23;;;2.80;97.30;;;;;;5033657;28;20682;-78
2022/03/19 04:36:53;;;;;;;14.33;4.00;;;2.80;97.30;;;;;;5033187;28;20177;-78
2022/03/19 04:39:19;;;;;;;11.10;4.47;;;2.80;97.30;;;;;;5034149;28;20293;-78
2022/03/19 04:41:44;;;;;;;8.00;3.20;;;2.80;97.30;;;;;;5032967;28;20176;-78
2022/03/19 04:44:10;;;;;;;10.80;3.50;;;2.80;97.30;;;;;;5032451;28;20255;-78
2022/03/19 04:46:36;;;;;;;8.57;3.57;;;2.80;97.30;;;;;;5032724;28;20180;-78
2022/03/19 04:49:01;;;;;;;7.83;3.07;;;2.70;97.30;;;;;;5033268;28;20276;-79
2022/03/19 04:51:32;;;;;;;18.10;4.00;;;2.70;97.30;;;;;;5033437;28;20417;-79
2022/03/19 04:53:59;;;;;;;9.50;3.23;;;2.70;97.30;;;;;;5032920;28;20261;-78
2022/03/19 04:56:26;;;;;;;16.13;3.57;;;2.70;97.30;;;;;;5034987;28;20502;-78
2022/03/19 04:58:55;;;;;;;21.83;4.23;;;2.60;97.30;;;;;;5033147;28;20534;-77
2022/03/19 05:01:21;;;;;;;24.03;4.83;;;2.60;97.30;;;;;;5032294;28;20423;-78
2022/03/19 05:03:47;;;;;;;8.53;3.23;;;2.60;97.30;;;;;;5032454;28;20467;-78
2022/03/19 05:06:12;;;;;;;8.70;3.17;;;2.50;97.30;;;;;;5032588;28;20454;-77
2022/03/19 05:08:38;;;;;;;10.87;3.60;;;2.50;97.30;;;;;;5033054;28;20184;-78
2022/03/19 05:11:13;;;;;;;8.70;2.80;;;2.50;97.30;;;;;;5032517;28;20173;-78
2022/03/19 05:13:48;;;;;;;16.23;3.80;;;2.50;97.30;;;;;;5031608;28;20681;-78
2022/03/19 05:16:18;;;;;;;13.60;3.83;;;2.40;97.30;;;;;;5032405;28;20417;-78
2022/03/19 05:18:44;;;;;;;12.63;4.00;;;2.50;97.30;;;;;;5033464;28;20438;-78
2022/03/19 05:21:12;;;;;;;13.40;3.50;;;2.40;97.30;;;;;;5032458;28;20940;-78
2022/03/19 05:23:38;;;;;;;9.93;3.10;;;2.40;97.30;;;;;;5032661;28;20871;-78
2022/03/19 05:26:04;;;;;;;9.30;3.00;;;2.40;97.30;;;;;;5032059;28;20477;-79
2022/03/19 05:28:30;;;;;;;17.33;3.97;;;2.40;97.30;;;;;;5032561;28;20180;-78
2022/03/19 05:30:57;;;;;;;8.57;3.00;;;2.30;97.30;;;;;;5032458;28;20462;-79
2022/03/19 05:34:29;;;;;;;15.13;3.40;;;2.30;97.30;;;;;;5032388;28;20291;-78
2022/03/19 05:36:09;;;;;;;17.23;3.13;;;2.20;97.30;;;;;;5033140;28;20923;-78
2022/03/19 05:38:35;;;;;;;9.23;3.60;;;2.20;97.30;;;;;;5031907;28;20415;-78
2022/03/19 05:41:01;;;;;;;7.63;2.90;;;2.20;97.30;;;;;;5033440;28;20411;-78
2022/03/19 05:43:26;;;;;;;5.47;2.80;;;2.30;97.30;;;;;;5032364;28;20234;-78
2022/03/19 05:45:52;;;;;;;10.60;3.00;;;2.30;97.30;;;;;;5033356;28;20614;-77
2022/03/19 05:48:17;;;;;;;7.63;3.07;;;2.30;97.30;;;;;;5032350;28;20367;-78
2022/03/19 05:50:43;;;;;;;7.37;2.70;;;2.30;97.30;;;;;;5031919;28;20212;-78
2022/03/19 05:53:09;;;;;;;13.90;3.43;;;2.30;97.30;;;;;;5031828;28;20196;-79
2022/03/19 05:55:34;;;;;;;9.80;2.97;;;2.30;97.30;;;;;;5031990;28;20208;-78
2022/03/19 05:58:00;;;;;;;13.37;3.10;;;2.30;97.30;;;;;;5032349;28;20186;-78
2022/03/19 06:00:25;;;;;;;8.80;3.00;;;2.30;97.30;;;;;;5031046;28;20204;-78
2022/03/19 06:02:51;;;;;;;16.57;4.33;;;2.40;97.30;;;;;;5032201;28;20279;-78
2022/03/19 06:05:16;;;;;;;12.53;3.50;;;2.40;97.30;;;;;;5032449;28;20199;-78
2022/03/19 06:07:42;;;;;;;11.80;3.43;;;2.40;97.30;;;;;;5031492;28;20176;-78
2022/03/19 06:10:08;;;;;;;6.37;2.80;;;2.40;97.30;;;;;;5031798;28;20187;-79
2022/03/19 06:12:34;;;;;;;8.67;4.40;;;2.40;97.30;;;;;;5032161;28;20177;-78
2022/03/19 06:14:59;;;;;;;6.73;2.97;;;2.50;97.30;;;;;;5032336;28;20778;-78
2022/03/19 06:17:25;;;;;;;5.30;2.90;;;2.50;97.30;;;;;;5031852;28;20311;-79
2022/03/19 06:19:51;;;;;;;14.10;3.10;;;2.60;97.30;;;;;;5031814;28;20212;-78
2022/03/19 06:22:17;;;;;;;11.17;3.20;;;2.60;97.30;;;;;;5033230;28;20180;-79
2022/03/19 06:24:42;;;;;;;12.60;3.63;;;2.70;97.30;;;;;;5046172;28;20529;-80
2022/03/19 06:27:08;;;;;;;9.73;3.30;;;2.70;97.30;;;;;;5056387;28;20183;-78
2022/03/19 06:29:34;;;;;;;7.60;2.93;;;2.80;97.30;;;;;;5056994;28;20239;-78
2022/03/19 06:31:59;;;;;;;7.70;2.83;;;2.80;97.30;;;;;;5058378;28;20187;-78
2022/03/19 06:34:25;;;;;;;16.33;3.90;;;2.90;97.30;;;;;;5058178;28;20196;-78
2022/03/19 06:39:35;;;;;;;17.83;2.97;;;3.10;97.30;;;;;;5039199;28;20260;-77
2022/03/19 06:42:01;;;;;;;9.53;3.60;;;3.10;97.30;;;;;;5037381;28;20451;-78
2022/03/19 06:44:27;;;;;;;12.17;4.37;;;3.20;97.30;;;;;;5037733;28;20231;-78
2022/03/19 06:46:52;;;;;;;9.13;3.03;;;3.30;97.30;;;;;;5037670;28;20422;-78
2022/03/19 06:49:18;;;;;;;14.13;3.77;;;3.40;97.30;;;;;;5037455;28;20427;-78
2022/03/19 06:51:44;;;;;;;6.87;3.13;;;3.50;97.30;;;;;;5037790;28;20234;-78
2022/03/19 06:54:10;;;;;;;8.33;2.53;;;3.60;97.30;;;;;;5037685;28;20614;-78
2022/03/19 06:56:35;;;;;;;11.97;3.30;;;3.60;97.30;;;;;;5037845;28;20172;-79
2022/03/19 06:59:01;;;;;;;8.03;4.07;;;3.80;97.30;;;;;;5039521;28;20196;-78
2022/03/19 07:01:27;;;;;;;16.03;2.90;;;3.90;97.30;;;;;;5039044;28;20198;-78
2022/03/19 07:03:53;;;;;;;12.63;3.03;;;3.90;97.30;;;;;;5036843;28;20250;-78
2022/03/19 07:06:18;;;;;;;14.77;4.10;;;4.00;97.30;;;;;;5037237;28;20595;-78
2022/03/19 07:08:45;;;;;;;12.07;3.70;;;4.00;97.30;;;;;;5036765;28;20183;-78
2022/03/19 07:11:11;;;;;;;12.07;4.43;;;4.10;97.30;;;;;;5035902;28;20569;-79
2022/03/19 07:13:37;;;;;;;9.10;3.40;;;4.20;97.30;;;;;;5036244;28;20446;-79
2022/03/19 07:16:03;;;;;;;11.97;3.60;;;4.30;97.30;;;;;;5036988;28;20415;-78
2022/03/19 07:18:29;;;;;;;9.97;3.00;;;4.30;97.30;;;;;;5037519;28;20415;-78
2022/03/19 07:20:54;;;;;;;22.40;3.77;;;4.40;97.30;;;;;;5037118;28;20423;-78
2022/03/19 07:23:21;;;;;;;9.73;3.00;;;4.50;97.30;;;;;;5037159;28;20196;-79
2022/03/19 07:25:46;;;;;;;7.20;3.03;;;4.60;97.30;;;;;;5037857;28;20208;-79
2022/03/19 07:28:14;;;;;;;17.60;3.30;;;4.60;97.30;;;;;;5029323;28;20431;-78
2022/03/19 07:30:40;;;;;;;17.23;4.00;;;4.70;97.30;;;;;;5018490;28;20665;-78
2022/03/19 07:33:06;;;;;;;8.97;3.33;;;4.80;97.30;;;;;;5031636;28;20512;-78
2022/03/19 07:35:32;;;;;;;6.60;3.23;;;4.90;97.30;;;;;;5037727;28;20419;-79
2022/03/19 07:37:58;;;;;;;19.10;4.40;;;5.00;97.30;;;;;;5036878;28;20267;-79
2022/03/19 07:43:10;;;;;;;4.77;2.50;;;5.10;97.30;;;;;;5039136;28;20195;-78
2022/03/19 07:45:37;;;;;;;19.23;3.60;;;5.20;97.30;;;;;;5036787;28;20408;-78
2022/03/19 07:48:03;;;;;;;18.93;4.27;;;5.30;97.30;;;;;;5037556;28;20923;-78
2022/03/19 07:50:29;;;;;;;9.97;3.10;;;5.30;97.30;;;;;;5036345;28;20502;-79
2022/03/19 07:52:56;;;;;;;16.17;3.67;;;5.40;97.30;;;;;;5033960;28;20999;-79
2022/03/19 07:55:21;;;;;;;11.53;2.73;;;5.50;97.30;;;;;;5033453;28;20408;-78
2022/03/19 07:57:47;;;;;;;12.30;3.90;;;5.60;97.30;;;;;;5033192;28;20483;-78
2022/03/19 08:00:13;;;;;;;9.70;3.27;;;5.80;97.30;;;;;;5034421;28;20204;-79
2022/03/19 08:02:40;;;;;;;15.83;3.73;;;5.80;97.30;;;;;;5034615;28;20192;-79
2022/03/19 08:05:06;;;;;;;5.63;2.50;;;5.90;97.30;;;;;;5042363;28;20403;-79
2022/03/19 08:07:32;;;;;;;11.03;3.00;;;6.00;97.30;;;;;;5055965;28;20745;-79
2022/03/19 08:09:58;;;;;;;6.90;2.53;;;6.10;97.30;;;;;;5056708;28;20475;-79
2022/03/19 08:12:24;;;;;;;9.50;3.00;;;6.10;97.30;;;;;;5057226;28;20175;-79
2022/03/19 08:14:51;;;;;;;8.40;2.83;;;6.20;97.30;;;;;;5057107;28;20718;-79
2022/03/19 08:17:17;;;;;;;11.77;3.17;;;6.30;97.30;;;;;;5058261;28;20943;-79
2022/03/19 08:19:44;;;;;;;22.13;3.67;;;6.50;97.30;;;;;;5056671;28;20476;-79
2022/03/19 08:22:09;;;;;;;9.63;3.00;;;6.50;97.30;;;;;;5056854;28;20423;-78
2022/03/19 08:24:36;;;;;;;13.17;3.00;;;6.60;97.30;;;;;;5057014;28;20453;-79
2022/03/19 08:27:02;;;;;;;26.17;3.60;;;6.70;97.30;;;;;;5056327;28;20532;-80
2022/03/19 08:29:28;;;;;;;7.23;4.50;;;6.70;97.30;;;;;;5058169;28;20461;-79
2022/03/19 08:31:54;;;;;;;15.03;2.70;;;6.80;97.30;;;;;;5056461;28;20179;-80
2022/03/19 08:34:20;;;;;;;9.27;3.37;;;6.80;97.30;;;;;;5056279;28;20478;-79
2022/03/19 08:36:46;;;;;;;12.93;3.90;;;6.90;97.30;;;;;;5056964;28;20418;-79
2022/03/19 08:41:55;;;;;;;7.00;3.00;;;7.10;97.30;;;;;;5057651;28;20187;-79
2022/03/19 08:44:21;;;;;;;8.77;2.57;;;7.20;97.30;;;;;;5055982;28;20893;-80
2022/03/19 08:46:47;;;;;;;12.87;2.87;;;7.30;97.30;;;;;;5056553;28;20262;-79
2022/03/19 08:49:13;;;;;;;9.23;3.37;;;7.40;97.30;;;;;;5057320;28;20277;-79
2022/03/19 08:51:41;;;;;;;15.83;3.67;;;7.50;97.30;;;;;;5056255;28;20672;-79
2022/03/19 08:54:18;;;;;;;22.83;3.23;;;7.60;97.10;;;;;;5055952;28;20469;-79
2022/03/19 08:56:46;;;;;;;9.17;3.40;;;7.70;97.20;;;;;;5055855;28;20447;-80
2022/03/19 08:59:12;;;;;;;11.43;3.20;;;7.90;97.20;;;;;;5057157;28;20450;-80
2022/03/19 09:01:39;;;;;;;11.10;3.10;;;8.00;97.20;;;;;;5057693;28;20900;-79
2022/03/19 09:04:05;;;;;;;10.50;2.93;;;8.00;96.00;;;;;;5055950;28;20430;-79
2022/03/19 09:06:31;;;;;;;16.53;3.00;;;8.00;95.20;;;;;;5055656;28;20776;-80
2022/03/19 09:08:59;;;;;;;8.47;3.30;;;8.10;95.30;;;;;;5055420;28;20517;-79
2022/03/19 09:11:24;;;;;;;13.83;2.93;;;8.20;94.40;;;;;;5056066;28;20251;-79
2022/03/19 09:13:51;;;;;;;10.63;2.70;;;8.30;94.80;;;;;;5056385;28;20477;-79
2022/03/19 09:16:17;;;;;;;12.83;2.63;;;8.50;95.20;;;;;;5055741;28;20609;-80
2022/03/19 09:18:43;;;;;;;11.67;2.83;;;8.70;94.80;;;;;;5056129;28;20794;-80
2022/03/19 09:21:09;;;;;;;13.37;2.83;;;8.80;94.00;;;;;;5055617;28;20419;-80
2022/03/19 09:23:35;;;;;;;6.27;2.93;;;8.90;93.30;;;;;;5055497;28;20693;-80
2022/03/19 09:26:01;;;;;;;8.33;2.93;;;8.90;93.30;;;;;;5055416;28;20414;-80
2022/03/19 09:28:27;;;;;;;7.90;2.43;;;9.00;93.10;;;;;;5055079;28;20422;-80
2022/03/19 09:30:52;;;;;;;12.83;2.73;;;8.90;92.60;;;;;;5055386;28;20462;-79
2022/03/19 09:33:18;;;;;;;10.73;2.70;;;8.90;93.00;;;;;;5056117;28;20210;-79
2022/03/19 09:35:48;;;;;;;9.23;2.57;;;9.00;93.40;;;;;;5055438;28;20180;-79
2022/03/19 09:38:14;;;;;;;12.37;3.37;;;9.10;92.60;;;;;;5056634;28;20830;-80
2022/03/19 09:40:41;;;;;;;12.27;3.50;;;9.30;92.20;;;;;;5056019;28;20488;-79
2022/03/19 09:43:07;;;;;;;9.37;2.77;;;9.40;92.10;;;;;;5058531;28;20434;-79
2022/03/19 09:45:34;;;;;;;7.50;3.10;;;9.60;92.20;;;;;;5057103;28;20803;-79
2022/03/19 09:48:01;;;;;;;7.83;2.57;;;9.60;90.90;;;;;;5056040;28;20457;-80
2022/03/19 09:50:27;;;;;;;11.03;3.17;;;9.70;90.80;;;;;;5055761;28;20472;-80
2022/03/19 09:52:55;;;;;;;8.87;2.53;;;9.70;91.20;;;;;;5056394;28;20454;-80
2022/03/19 09:55:26;;;;;;;9.57;2.90;;;9.70;90.80;;;;;;5057850;28;20440;-80
2022/03/19 09:57:54;;;;;;;6.60;2.80;;;9.80;91.60;;;;;;5057266;28;20424;-80
2022/03/19 10:00:22;;;;;;;15.30;3.63;;;9.70;90.20;;;;;;5060884;28;20557;-80
2022/03/19 10:02:54;;;;;;;6.23;2.47;;;9.70;89.80;;;;;;5061677;28;20503;-80
2022/03/19 10:10:56;;;;;;;12.90;3.50;;;10.10;89.70;;;;;;5062838;28;20429;-80
2022/03/19 10:13:26;;;;;;;13.43;3.47;;;10.20;90.20;;;;;;5060679;28;20441;-80
2022/03/19 10:15:51;;;;;;;12.83;3.20;;;10.40;90.60;;;;;;5062557;28;20457;-80
2022/03/19 10:18:17;;;;;;;9.83;3.03;;;10.50;89.40;;;;;;5060778;28;20414;-80
2022/03/19 10:20:44;;;;;;;8.50;2.20;;;10.70;90.00;;;;;;5060639;28;20207;-81
2022/03/19 10:23:10;;;;;;;5.97;2.13;;;10.70;86.70;;;;;;5060262;28;20196;-80
2022/03/19 10:25:36;;;;;;;9.83;2.50;;;10.60;86.70;;;;;;5061235;28;20470;-80
2022/03/19 10:28:09;;;;;;;8.47;2.00;;;10.30;86.40;;;;;;5059825;28;20414;-80
2022/03/19 10:30:40;;;;;;;8.33;2.27;;;10.00;86.00;;;;;;5060378;28;20552;-80
2022/03/19 10:33:10;;;;;;;23.17;2.90;;;9.80;86.60;;;;;;5061382;28;20450;-80
2022/03/19 10:35:39;;;;;;;8.17;2.63;;;9.90;87.20;;;;;;5061560;28;20418;-80
2022/03/19 10:38:23;;;;;;;5.23;2.00;;;9.70;86.90;;;;;;5060391;28;20426;-80
2022/03/19 10:40:51;;;;;;;5.80;2.40;;;9.50;86.80;;;;;;5059875;28;20507;-80
2022/03/19 10:43:19;;;;;;;6.43;2.30;;;9.40;87.50;;;;;;5059122;28;20533;-80
2022/03/19 10:45:48;;;;;;;7.53;2.77;;;9.60;88.70;;;;;;5058952;28;20410;-80
2022/03/19 10:48:18;;;;;;;18.97;4.10;;;9.80;88.50;;;;;;5059688;28;20420;-80
2022/03/19 10:50:44;;;;;;;6.93;2.77;;;10.10;88.40;;;;;;5058169;28;20476;-80
2022/03/19 10:53:10;;;;;;;9.50;3.03;;;10.10;87.40;;;;;;5058692;28;20446;-80
2022/03/19 10:55:36;;;;;;;10.47;3.40;;;10.10;87.80;;;;;;5059199;28;20184;-80
2022/03/19 10:58:02;;;;;;;7.33;2.93;;;10.10;87.80;;;;;;5058676;28;20521;-81
2022/03/19 11:00:28;;;;;;;6.30;2.37;;;10.10;88.40;;;;;;5057460;28;20204;-80
2022/03/19 11:03:00;;;;;;;11.20;2.57;;;10.20;88.10;;;;;;5058223;28;20441;-80
2022/03/19 11:05:28;;;;;;;12.53;3.20;;;10.30;87.80;;;;;;5058303;28;20596;-80
2022/03/19 11:07:56;;;;;;;19.97;3.43;;;10.30;87.30;;;;;;5057961;28;20413;-80
2022/03/19 11:10:22;;;;;;;10.57;3.40;;;10.10;88.10;;;;;;5058130;28;20410;-80
2022/03/19 11:12:50;;;;;;;12.87;3.90;;;9.80;88.00;;;;;;5057376;28;20513;-80
2022/03/19 11:15:19;;;;;;;6.60;3.07;;;9.70;89.40;;;;;;5058206;28;20974;-80
2022/03/19 11:17:48;;;;;;;8.60;3.00;;;9.70;89.60;;;;;;5058127;28;20417;-80
2022/03/19 11:20:14;;;;;;;9.70;3.47;;;9.70;89.60;;;;;;5057936;28;20477;-80
2022/03/19 11:22:44;;;;;;;12.17;3.30;;;9.60;89.20;;;;;;5058134;28;20435;-80
2022/03/19 11:25:20;;;;;;;9.83;3.40;;;9.60;90.20;;;;;;5057901;28;20175;-81
2022/03/19 11:27:48;;;;;;;8.73;2.63;;;9.70;90.40;;;;;;5058256;28;20418;-81
2022/03/19 11:30:17;;;;;;;7.40;2.93;;;9.90;90.20;;;;;;5057432;28;20709;-80
2022/03/19 11:33:10;;;;;;;9.20;2.83;;;9.80;88.60;;;;;;5058215;28;20521;-79
2022/03/19 11:35:41;;;;;;;14.27;4.40;;;9.80;89.40;;;;;;5057247;28;20411;-80
2022/03/19 11:38:13;;;;;;;13.13;4.10;;;9.70;87.40;;;;;;5057863;28;20502;-80
2022/03/19 11:40:47;;;;;;;7.60;3.40;;;9.70;87.10;;;;;;5057214;28;20519;-80
2022/03/19 11:43:18;;;;;;;7.53;2.70;;;9.70;86.90;;;;;;5057412;28;20523;-80
2022/03/19 11:46:06;;;;;;;8.07;3.40;;;9.80;87.10;;;;;;5056921;28;20407;-79
2022/03/19 11:48:35;;;;;;;6.87;3.33;;;10.00;87.20;;;;;;5058950;28;20395;-80
2022/03/19 11:51:18;;;;;;;12.30;3.83;;;10.10;87.30;;;;;;5057627;28;20486;-80
2022/03/19 11:53:51;;;;;;;13.03;4.00;;;10.00;87.80;;;;;;5056968;28;20438;-79
2022/03/19 11:56:19;;;;;;;17.10;5.07;;;10.00;88.40;;;;;;5057568;28;20422;-79
2022/03/19 11:58:46;;;;;;;12.73;4.63;;;10.00;87.90;;;;;;5059108;28;20403;-78
2022/03/19 12:01:11;;;;;;;11.83;4.40;;;9.90;88.40;;;;;;5057667;28;20449;-80
2022/03/19 12:04:05;;;;;;;11.00;4.90;;;9.80;89.00;;;;;;5056789;28;20441;-80
2022/03/19 12:06:33;;;;;;;13.13;4.93;;;9.80;89.30;;;;;;5056744;28;20176;-80
2022/03/19 12:08:59;;;;;;;12.73;5.10;;;9.80;89.30;;;;;;5058626;28;20402;-80
2022/03/19 12:11:25;;;;;;;9.33;4.63;;;9.80;88.50;;;;;;5059150;28;20398;-81
2022/03/19 12:13:50;;;;;;;15.23;5.30;;;9.80;88.00;;;;;;5056392;28;20982;-80
2022/03/19 12:16:39;;;;;;;9.40;5.30;;;10.00;88.90;;;;;;5056307;28;20442;-80
2022/03/19 12:19:06;;;;;;;11.27;6.00;;;10.40;88.30;;;;;;5057062;28;20219;-80
2022/03/19 12:21:44;;;;;;;14.57;7.17;;;10.40;87.20;;;;;;5056979;28;20493;-81
2022/03/19 12:24:39;;;;;;;14.80;7.23;;;10.10;87.20;;;;;;5057704;28;20521;-80
2022/03/19 12:27:04;;;;;;;13.93;7.60;;;10.00;89.10;;;;;;5057182;28;20477;-80
2022/03/19 12:29:32;;;;;;;20.87;8.93;;;10.00;87.90;;;;;;5056328;28;20521;-80
2022/03/19 12:31:58;;;;;;;17.93;8.07;;;9.70;88.30;;;;;;5056223;28;20234;-80
2022/03/19 12:34:26;;;;;;;19.50;9.17;;;9.80;89.40;;;;;;5055525;28;20435;-80
2022/03/19 12:36:59;;;;;;;16.23;9.70;;;10.00;89.20;;;;;;5057351;28;20172;-79
2022/03/19 12:39:24;;;;;;;19.97;8.40;;;10.00;88.10;;;;;;5055854;28;20450;-79
2022/03/19 12:41:50;;;;;;;19.40;9.90;;;10.00;89.20;;;;;;5056343;28;20447;-80
2022/03/19 12:44:22;;;;;;;15.20;8.67;;;10.10;89.10;;;;;;5057146;28;20188;-80
2022/03/19 12:46:56;;;;;;;28.90;10.83;;;10.20;88.40;;;;;;5056838;28;20546;-80
2022/03/19 12:49:22;;;;;;;21.97;11.33;;;10.20;87.80;;;;;;5055752;28;20407;-80
2022/03/19 12:51:49;;;;;;;19.13;10.27;;;10.40;87.10;;;;;;5055553;28;20802;-80
2022/03/19 12:54:26;;;;;;;20.80;11.27;;;10.50;86.30;;;;;;5055756;28;20477;-78
2022/03/19 12:56:53;;;;;;;24.40;11.03;;;10.60;84.90;;;;;;5056212;28;20958;-80
2022/03/19 12:59:24;;;;;;;16.67;10.17;;;10.70;84.50;;;;;;5055496;28;20457;-80
2022/03/19 13:01:51;;;;;;;20.03;10.87;;;10.90;84.50;;;;;;5055399;28;20410;-80
2022/03/19 13:04:23;;;;;;;22.77;11.20;;;11.10;83.80;;;;;;5056099;28;20826;-80